Time;durP1;ratioP1;P1;durP2;ratioP2;P2;SDS_P1;SDS_P2;PMS_P1;PMS_P2;Temp;Humidity;BMP_temperature;BMP_pressure;BME280_temperature;BME280_humidity;BME280_pressure;Samples;Min_cycle;Max_cycle;Signal;HPM_P1;HPM_P2
2021/12/06 00:00:46;;;;;;;19.95;10.88;;;;;;;;;;5096759;28;20043;-78
2021/12/06 00:03:19;;;;;;;16.58;10.23;;;;;;;;;;5098566;28;20562;-78
2021/12/06 00:05:45;;;;;;;16.35;10.30;;;;;;;;;;5092742;28;20091;-78
2021/12/06 00:08:11;;;;;;;16.55;10.10;;;;;;;;;;5078527;28;20433;-78
2021/12/06 00:10:38;;;;;;;17.55;10.02;;;;;;;;;;5080240;28;20429;-78
2021/12/06 00:13:04;;;;;;;18.48;10.68;;;;;;;;;;5095991;28;20024;-77
2021/12/06 00:15:33;;;;;;;17.35;9.90;;;;;;;;;;5099462;28;20050;-78
2021/12/06 00:17:59;;;;;;;17.77;10.88;;;;;;;;;;5088322;28;20119;-78
2021/12/06 00:20:25;;;;;;;18.63;11.05;;;;;;;;;;5095304;28;20028;-78
2021/12/06 00:22:51;;;;;;;16.80;10.18;;;;;;;;;;5085651;28;20119;-78
2021/12/06 00:25:17;;;;;;;21.50;10.75;;;;;;;;;;5090743;28;20028;-78
2021/12/06 00:27:43;;;;;;;18.88;10.40;;;;;;;;;;5076471;28;20029;-78
2021/12/06 00:30:12;;;;;;;16.85;10.43;;;;;;;;;;5082810;28;20038;-78
2021/12/06 00:32:40;;;;;;;17.38;10.32;;;;;;;;;;5096899;28;20050;-78
2021/12/06 00:35:06;;;;;;;17.35;9.95;;;;;;;;;;5098181;28;20549;-78
2021/12/06 00:37:41;;;;;;;20.77;11.02;;;;;;;;;;5097703;28;20028;-78
2021/12/06 00:40:08;;;;;;;17.40;10.25;;;;;;;;;;5088874;28;20063;-78
2021/12/06 00:42:34;;;;;;;19.48;10.85;;;;;;;;;;5087052;28;20024;-78
2021/12/06 00:45:01;;;;;;;21.95;10.93;;;;;;;;;;5100212;28;20020;-78
2021/12/06 00:47:27;;;;;;;20.13;11.32;;;;;;;;;;5100978;28;20020;-77
2021/12/06 00:49:53;;;;;;;17.80;11.10;;;;;;;;;;5098583;28;20050;-77
2021/12/06 00:52:19;;;;;;;21.83;11.05;;;;;;;;;;5088449;28;20055;-78
2021/12/06 00:54:46;;;;;;;20.92;11.02;;;;;;;;;;5098522;28;20440;-77
2021/12/06 00:57:13;;;;;;;16.42;9.75;;;;;;;;;;5100819;28;20036;-78
2021/12/06 00:59:40;;;;;;;18.40;10.13;;;;;;;;;;5100386;28;20090;-78
2021/12/06 01:02:07;;;;;;;17.67;10.13;;;;;;;;;;5097494;28;20088;-78
2021/12/06 01:04:34;;;;;;;18.55;10.50;;;;;;;;;;5097414;28;20055;-78
2021/12/06 01:07:00;;;;;;;16.10;10.00;;;;;;;;;;5080714;28;20112;-78
2021/12/06 01:09:26;;;;;;;14.55;9.48;;;;;;;;;;5078561;28;20028;-78
2021/12/06 01:11:52;;;;;;;18.38;10.77;;;;;;;;;;5090063;28;20038;-78
2021/12/06 01:14:19;;;;;;;16.15;9.73;;;;;;;;;;5083084;28;20060;-78
2021/12/06 01:16:46;;;;;;;17.13;9.68;;;;;;;;;;5093141;28;20023;-78
2021/12/06 01:19:12;;;;;;;18.08;10.13;;;;;;;;;;5093601;28;20401;-78
2021/12/06 01:24:09;;;;;;;16.58;9.65;;;;;;;;;;5082716;28;20031;-78
2021/12/06 01:32:01;;;;;;;16.50;9.13;;;;;;;;;;5102591;28;20039;-78
2021/12/06 01:39:42;;;;;;;16.48;10.00;;;;;;;;;;5084143;28;20436;-78
2021/12/06 01:42:09;;;;;;;15.95;9.38;;;;;;;;;;5084459;28;20029;-79
2021/12/06 01:44:34;;;;;;;18.63;9.88;;;;;;;;;;5084813;28;20027;-78
2021/12/06 01:47:05;;;;;;;15.20;8.80;;;;;;;;;;5085156;28;20024;-79
2021/12/06 01:49:33;;;;;;;17.08;10.05;;;;;;;;;;5092682;28;20047;-79
2021/12/06 01:52:01;;;;;;;19.23;10.77;;;;;;;;;;5096378;28;20043;-79
2021/12/06 01:54:27;;;;;;;19.00;10.10;;;;;;;;;;5087792;28;20029;-78
2021/12/06 01:56:54;;;;;;;19.33;9.48;;;;;;;;;;5087626;28;20044;-78
2021/12/06 01:59:21;;;;;;;16.40;9.93;;;;;;;;;;5105599;28;20061;-79
2021/12/06 02:01:47;;;;;;;17.70;10.18;;;;;;;;;;5115593;28;20036;-79
2021/12/06 02:04:14;;;;;;;15.43;9.52;;;;;;;;;;5122562;28;20080;-78
2021/12/06 02:06:41;;;;;;;17.45;9.77;;;;;;;;;;5085509;28;20023;-79
2021/12/06 02:09:08;;;;;;;18.27;9.35;;;;;;;;;;5087550;28;20086;-79
2021/12/06 02:11:36;;;;;;;15.65;9.85;;;;;;;;;;5098888;28;20024;-79
2021/12/06 02:14:15;;;;;;;16.58;9.13;;;;;;;;;;5089010;28;20028;-78
2021/12/06 02:16:57;;;;;;;17.30;9.35;;;;;;;;;;5100284;28;20051;-79
2021/12/06 02:19:30;;;;;;;15.40;9.90;;;;;;;;;;5108089;28;20024;-79
2021/12/06 02:21:56;;;;;;;17.10;9.48;;;;;;;;;;5104709;28;20035;-78
2021/12/06 02:24:23;;;;;;;15.55;9.55;;;;;;;;;;5107412;28;20035;-79
2021/12/06 02:26:51;;;;;;;18.33;10.85;;;;;;;;;;5108552;28;20030;-78
2021/12/06 02:29:17;;;;;;;18.80;9.68;;;;;;;;;;5106047;28;20024;-79
2021/12/06 02:31:43;;;;;;;15.68;9.02;;;;;;;;;;5100022;28;20055;-78
2021/12/06 02:34:09;;;;;;;17.42;9.27;;;;;;;;;;5105948;28;20493;-79
2021/12/06 02:36:35;;;;;;;18.88;10.50;;;;;;;;;;5096081;28;20034;-78
2021/12/06 02:39:02;;;;;;;18.40;10.27;;;;;;;;;;5090095;28;20439;-79
2021/12/06 02:41:29;;;;;;;18.85;10.68;;;;;;;;;;5098515;28;20101;-79
2021/12/06 02:43:55;;;;;;;18.40;10.38;;;;;;;;;;5107935;28;20020;-79
2021/12/06 02:46:22;;;;;;;19.20;10.00;;;;;;;;;;5111188;28;20104;-79
2021/12/06 02:48:49;;;;;;;16.90;9.65;;;;;;;;;;5108757;28;20031;-79
2021/12/06 02:51:16;;;;;;;18.00;10.77;;;;;;;;;;5093793;28;20044;-79
2021/12/06 02:53:42;;;;;;;22.17;11.10;;;;;;;;;;5103949;28;20035;-79
2021/12/06 02:56:31;;;;;;;16.35;9.43;;;;;;;;;;5097831;28;20032;-79
2021/12/06 02:58:59;;;;;;;18.45;10.23;;;;;;;;;;5090199;28;20051;-79
2021/12/06 03:01:29;;;;;;;16.58;9.05;;;;;;;;;;5098149;28;20082;-79
2021/12/06 03:03:56;;;;;;;16.65;8.98;;;;;;;;;;5090328;28;20046;-79
2021/12/06 03:06:23;;;;;;;17.52;9.05;;;;;;;;;;5090303;28;20029;-79
2021/12/06 03:08:54;;;;;;;16.35;9.43;;;;;;;;;;5101732;28;20024;-79
2021/12/06 03:11:22;;;;;;;16.88;9.93;;;;;;;;;;5103163;28;20079;-79
2021/12/06 03:13:49;;;;;;;17.30;10.18;;;;;;;;;;5110938;28;20063;-79
2021/12/06 03:16:15;;;;;;;14.98;8.77;;;;;;;;;;5096823;28;20100;-80
2021/12/06 03:18:45;;;;;;;17.30;10.38;;;;;;;;;;5107644;28;20080;-80
2021/12/06 03:21:12;;;;;;;17.65;10.57;;;;;;;;;;5107940;28;20016;-79
2021/12/06 03:23:38;;;;;;;17.45;9.45;;;;;;;;;;5098461;28;20053;-80
2021/12/06 03:26:05;;;;;;;16.00;10.20;;;;;;;;;;5111770;28;20024;-79
2021/12/06 03:28:35;;;;;;;19.50;10.80;;;;;;;;;;5097837;28;20048;-79
2021/12/06 03:31:03;;;;;;;18.27;10.88;;;;;;;;;;5090909;28;20013;-80
2021/12/06 03:33:29;;;;;;;17.92;11.05;;;;;;;;;;5091628;28;20044;-80
2021/12/06 03:35:55;;;;;;;20.10;10.68;;;;;;;;;;5098147;28;20024;-79
2021/12/06 03:38:21;;;;;;;19.73;11.98;;;;;;;;;;5108482;28;20076;-80
2021/12/06 03:40:47;;;;;;;19.02;10.77;;;;;;;;;;5103391;28;20024;-80
2021/12/06 03:43:13;;;;;;;17.83;10.30;;;;;;;;;;5109309;28;20042;-80
2021/12/06 03:45:39;;;;;;;20.83;11.95;;;;;;;;;;5111094;28;20056;-80
2021/12/06 03:48:05;;;;;;;18.95;11.23;;;;;;;;;;5111071;28;20020;-79
2021/12/06 03:50:31;;;;;;;18.13;11.07;;;;;;;;;;5099636;28;20051;-80
2021/12/06 03:52:57;;;;;;;17.73;11.35;;;;;;;;;;5109336;28;20022;-80
2021/12/06 03:55:23;;;;;;;19.35;11.68;;;;;;;;;;5089780;28;20040;-80
2021/12/06 03:57:50;;;;;;;19.52;11.38;;;;;;;;;;5090741;28;20031;-80
2021/12/06 04:00:16;;;;;;;20.38;11.43;;;;;;;;;;5093451;28;20040;-80
2021/12/06 04:02:43;;;;;;;21.48;11.25;;;;;;;;;;5101440;28;20020;-79
2021/12/06 04:05:09;;;;;;;20.77;12.00;;;;;;;;;;5102647;28;20054;-80
2021/12/06 04:07:38;;;;;;;23.17;12.00;;;;;;;;;;5105761;28;20126;-79
2021/12/06 04:10:08;;;;;;;21.83;11.77;;;;;;;;;;5092786;28;20027;-79
2021/12/06 04:12:34;;;;;;;20.25;12.10;;;;;;;;;;5108820;28;20028;-80
2021/12/06 04:15:00;;;;;;;18.27;11.38;;;;;;;;;;5094574;28;20025;-80
2021/12/06 04:17:27;;;;;;;21.40;11.75;;;;;;;;;;5099567;28;20027;-80
2021/12/06 04:19:53;;;;;;;20.38;12.27;;;;;;;;;;5094649;28;20039;-80
2021/12/06 04:22:19;;;;;;;24.13;12.35;;;;;;;;;;5104241;28;20028;-80
2021/12/06 04:24:46;;;;;;;22.05;12.15;;;;;;;;;;5092716;28;20027;-79
2021/12/06 04:27:14;;;;;;;24.65;12.65;;;;;;;;;;5104652;28;20054;-79
2021/12/06 04:29:45;;;;;;;18.95;11.65;;;;;;;;;;5114030;28;20109;-79
2021/12/06 04:32:11;;;;;;;20.48;11.40;;;;;;;;;;5096395;28;20029;-79
2021/12/06 04:34:37;;;;;;;21.52;12.15;;;;;;;;;;5096019;28;20015;-78
2021/12/06 04:37:04;;;;;;;23.23;11.25;;;;;;;;;;5099516;28;20035;-78
2021/12/06 04:39:30;;;;;;;22.10;12.50;;;;;;;;;;5104040;28;20105;-79
2021/12/06 04:41:56;;;;;;;21.67;12.30;;;;;;;;;;5087600;28;20017;-79
2021/12/06 04:44:22;;;;;;;21.45;11.98;;;;;;;;;;5094365;28;20023;-79
2021/12/06 04:46:48;;;;;;;21.92;12.75;;;;;;;;;;5107257;28;20070;-79
2021/12/06 04:49:14;;;;;;;20.27;12.15;;;;;;;;;;5107651;28;20039;-79
2021/12/06 04:51:41;;;;;;;21.65;12.15;;;;;;;;;;5100238;28;20032;-79
2021/12/06 04:54:08;;;;;;;20.70;11.77;;;;;;;;;;5106073;28;20020;-79
2021/12/06 04:56:36;;;;;;;19.90;11.93;;;;;;;;;;5089478;28;20024;-79
2021/12/06 04:59:02;;;;;;;22.60;12.95;;;;;;;;;;5089033;28;20042;-79
2021/12/06 05:01:30;;;;;;;22.70;13.15;;;;;;;;;;5104648;28;20103;-79
2021/12/06 05:03:57;;;;;;;22.05;11.75;;;;;;;;;;5097080;28;20027;-79
2021/12/06 05:06:26;;;;;;;21.58;13.05;;;;;;;;;;5089475;28;20024;-79
2021/12/06 05:08:54;;;;;;;23.55;12.75;;;;;;;;;;5099718;28;20059;-79
2021/12/06 05:11:23;;;;;;;24.02;12.77;;;;;;;;;;5087658;28;20059;-80
2021/12/06 05:13:52;;;;;;;21.17;12.73;;;;;;;;;;5104938;28;20087;-79
2021/12/06 05:16:18;;;;;;;20.05;11.77;;;;;;;;;;5104037;28;20243;-80
2021/12/06 05:18:44;;;;;;;19.42;10.75;;;;;;;;;;5089896;28;20028;-80
2021/12/06 05:21:10;;;;;;;23.33;12.50;;;;;;;;;;5093568;28;20036;-80
2021/12/06 05:23:36;;;;;;;20.15;11.75;;;;;;;;;;5096795;28;20453;-81
2021/12/06 05:26:06;;;;;;;21.73;11.70;;;;;;;;;;5092254;28;20035;-79
2021/12/06 05:28:38;;;;;;;18.98;11.38;;;;;;;;;;5097066;28;20020;-80
2021/12/06 05:31:13;;;;;;;;;;;;;;;;;;5089298;28;20008;-80
2021/12/06 05:33:41;;;;;;;20.65;12.52;;;;;;;;;;5102302;28;19908;-79
2021/12/06 05:36:07;;;;;;;19.33;11.98;;;;;;;;;;5102140;28;20021;-80
2021/12/06 05:38:33;;;;;;;22.85;12.00;;;;;;;;;;5104606;28;20099;-80
2021/12/06 05:40:59;;;;;;;20.85;12.25;;;;;;;;;;5106729;28;20300;-79
2021/12/06 05:43:25;;;;;;;21.83;12.32;;;;;;;;;;5105155;28;20458;-79
2021/12/06 05:45:51;;;;;;;21.90;13.00;;;;;;;;;;5088861;28;20025;-80
2021/12/06 05:48:18;;;;;;;24.02;12.98;;;;;;;;;;5088632;28;20043;-80
2021/12/06 05:50:48;;;;;;;22.35;11.82;;;;;;;;;;5087732;28;20017;-80
2021/12/06 05:53:14;;;;;;;21.63;11.85;;;;;;;;;;5085982;28;20043;-79
2021/12/06 05:55:41;;;;;;;23.20;12.60;;;;;;;;;;5083380;28;20031;-80
2021/12/06 05:58:08;;;;;;;22.88;12.32;;;;;;;;;;5084655;28;20056;-80
2021/12/06 06:00:35;;;;;;;18.85;11.48;;;;;;;;;;5104920;28;20032;-80
2021/12/06 06:03:03;;;;;;;18.88;11.48;;;;;;;;;;5102612;28;20031;-80
2021/12/06 06:05:29;;;;;;;21.08;10.80;;;;;;;;;;5086256;28;20088;-79
2021/12/06 06:07:55;;;;;;;22.45;11.38;;;;;;;;;;5085711;28;20021;-80
2021/12/06 06:10:21;;;;;;;22.33;12.27;;;;;;;;;;5085017;28;20032;-79
2021/12/06 06:12:47;;;;;;;22.35;11.68;;;;;;;;;;5089320;28;20114;-79
2021/12/06 06:15:13;;;;;;;20.90;10.93;;;;;;;;;;5101543;28;20480;-79
2021/12/06 06:17:42;;;;;;;20.80;10.88;;;;;;;;;;5092783;28;20032;-79
2021/12/06 06:20:18;;;;;;;18.42;10.93;;;;;;;;;;5097944;28;20032;-79
2021/12/06 06:22:44;;;;;;;21.95;12.10;;;;;;;;;;5092143;28;20020;-79
2021/12/06 06:25:10;;;;;;;19.17;10.68;;;;;;;;;;5104128;28;20108;-79
2021/12/06 06:33:25;;;;;;;18.33;10.95;;;;;;;;;;5096242;28;20035;-80
2021/12/06 06:35:51;;;;;;;19.08;11.07;;;;;;;;;;5092625;28;20020;-79
2021/12/06 06:38:17;;;;;;;23.40;11.77;;;;;;;;;;5098904;28;20034;-78
2021/12/06 06:40:43;;;;;;;20.73;11.48;;;;;;;;;;5093057;28;20032;-78
2021/12/06 06:43:10;;;;;;;24.58;11.73;;;;;;;;;;5098522;28;20064;-79
2021/12/06 06:45:36;;;;;;;20.02;11.68;;;;;;;;;;5094046;28;20016;-79
2021/12/06 06:48:02;;;;;;;21.60;12.73;;;;;;;;;;5089144;28;20050;-78
2021/12/06 06:50:28;;;;;;;18.88;11.48;;;;;;;;;;5085882;28;20028;-79
2021/12/06 06:52:54;;;;;;;16.27;10.57;;;;;;;;;;5083238;28;20466;-79
2021/12/06 06:55:21;;;;;;;18.50;10.63;;;;;;;;;;5099345;28;20120;-78
2021/12/06 06:57:47;;;;;;;22.38;12.05;;;;;;;;;;5098926;28;20024;-78
2021/12/06 07:00:15;;;;;;;20.52;11.45;;;;;;;;;;5094269;28;20020;-80
2021/12/06 07:02:42;;;;;;;18.77;10.38;;;;;;;;;;5093123;28;20029;-79
2021/12/06 07:05:10;;;;;;;20.40;12.30;;;;;;;;;;5103743;28;20020;-80
2021/12/06 07:07:37;;;;;;;18.25;10.98;;;;;;;;;;5103047;28;20020;-79
2021/12/06 07:10:04;;;;;;;22.40;12.18;;;;;;;;;;5098723;28;20025;-79
2021/12/06 07:12:31;;;;;;;22.08;12.60;;;;;;;;;;5086200;28;20032;-80
2021/12/06 07:14:57;;;;;;;22.17;12.02;;;;;;;;;;5100968;28;20100;-78
2021/12/06 07:17:23;;;;;;;17.67;10.75;;;;;;;;;;5105167;28;20028;-79
2021/12/06 07:19:49;;;;;;;17.23;12.00;;;;;;;;;;5100454;28;20039;-79
2021/12/06 07:22:15;;;;;;;19.58;11.50;;;;;;;;;;5089689;28;20027;-80
2021/12/06 07:24:41;;;;;;;17.58;11.70;;;;;;;;;;5102401;28;20135;-79
2021/12/06 07:27:08;;;;;;;19.63;11.27;;;;;;;;;;5102511;28;20490;-79
2021/12/06 07:29:35;;;;;;;18.80;11.88;;;;;;;;;;5102541;28;20032;-79
2021/12/06 07:32:02;;;;;;;22.20;12.00;;;;;;;;;;5080317;28;20029;-79
2021/12/06 07:34:28;;;;;;;20.48;11.30;;;;;;;;;;5081650;28;20025;-79
2021/12/06 07:36:54;;;;;;;20.80;10.60;;;;;;;;;;5081186;28;20032;-79
2021/12/06 07:39:20;;;;;;;17.55;11.70;;;;;;;;;;5081131;28;20029;-79
2021/12/06 07:41:46;;;;;;;16.70;10.60;;;;;;;;;;5081380;28;20421;-79
2021/12/06 07:44:12;;;;;;;17.55;10.35;;;;;;;;;;5082185;28;20025;-79
2021/12/06 07:46:38;;;;;;;17.92;10.25;;;;;;;;;;5083174;28;20060;-79
2021/12/06 07:49:04;;;;;;;19.10;10.77;;;;;;;;;;5082191;28;20025;-80
2021/12/06 07:51:30;;;;;;;20.98;10.02;;;;;;;;;;5095285;28;20093;-79
2021/12/06 07:53:57;;;;;;;18.13;10.30;;;;;;;;;;5086813;28;20388;-79
2021/12/06 07:56:24;;;;;;;20.30;10.05;;;;;;;;;;5080654;28;20028;-79
2021/12/06 07:58:51;;;;;;;19.33;9.48;;;;;;;;;;5081536;28;20044;-79
2021/12/06 08:01:17;;;;;;;15.57;9.13;;;;;;;;;;5083367;28;20106;-79
2021/12/06 08:03:43;;;;;;;17.88;9.80;;;;;;;;;;5082492;28;20534;-78
2021/12/06 08:06:10;;;;;;;17.77;9.65;;;;;;;;;;5081269;28;20509;-78
2021/12/06 08:08:38;;;;;;;15.65;9.40;;;;;;;;;;5101254;28;20028;-79
2021/12/06 08:11:11;;;;;;;17.33;9.57;;;;;;;;;;5102175;28;20013;-79
2021/12/06 08:13:37;;;;;;;;;;;;;;;;;;5088995;28;20021;-79
2021/12/06 08:16:09;;;;;;;18.63;9.18;;;;;;;;;;5082054;28;19955;-79
2021/12/06 08:18:35;;;;;;;19.95;10.00;;;;;;;;;;5083314;28;20029;-79
2021/12/06 08:21:02;;;;;;;18.80;10.07;;;;;;;;;;5081217;28;20055;-79
2021/12/06 08:23:28;;;;;;;17.65;9.68;;;;;;;;;;5081368;28;20020;-79
2021/12/06 08:25:55;;;;;;;20.25;12.20;;;;;;;;;;5103776;28;20028;-79
2021/12/06 08:28:23;;;;;;;19.63;11.95;;;;;;;;;;5101959;28;20024;-79
2021/12/06 08:30:49;;;;;;;19.17;11.60;;;;;;;;;;5104361;28;20417;-79
2021/12/06 08:33:15;;;;;;;19.38;11.27;;;;;;;;;;5095003;28;20032;-80
2021/12/06 08:35:45;;;;;;;20.00;12.35;;;;;;;;;;5089615;28;20029;-79
2021/12/06 08:38:12;;;;;;;16.25;11.25;;;;;;;;;;5077764;28;20021;-78
2021/12/06 08:40:39;;;;;;;21.63;10.95;;;;;;;;;;5079090;28;20025;-79
2021/12/06 08:43:05;;;;;;;18.05;11.07;;;;;;;;;;5080570;28;20081;-78
2021/12/06 08:45:31;;;;;;;17.73;10.27;;;;;;;;;;5089559;28;20028;-78
2021/12/06 08:47:58;;;;;;;15.82;9.43;;;;;;;;;;5096286;28;20074;-78
2021/12/06 08:50:25;;;;;;;15.75;9.70;;;;;;;;;;5096762;28;20508;-79
2021/12/06 08:52:52;;;;;;;17.10;10.18;;;;;;;;;;5090450;28;20025;-78
2021/12/06 08:55:19;;;;;;;15.60;9.63;;;;;;;;;;5074847;28;20029;-78
2021/12/06 08:57:45;;;;;;;17.20;9.93;;;;;;;;;;5073866;28;20470;-78
2021/12/06 09:00:13;;;;;;;17.55;9.35;;;;;;;;;;5074901;28;20025;-79
2021/12/06 09:02:41;;;;;;;17.83;9.73;;;;;;;;;;5077231;28;20097;-78
2021/12/06 09:05:07;;;;;;;18.23;9.95;;;;;;;;;;5091782;28;20040;-79
2021/12/06 09:07:33;;;;;;;16.75;9.38;;;;;;;;;;5091405;28;20111;-78
2021/12/06 09:09:59;;;;;;;17.50;9.40;;;;;;;;;;5092355;28;20066;-78
2021/12/06 09:12:27;;;;;;;18.42;9.15;;;;;;;;;;5090716;28;20028;-78
2021/12/06 09:14:58;;;;;;;17.17;9.82;;;;;;;;;;5082537;28;20020;-78
2021/12/06 09:17:25;;;;;;;17.20;10.20;;;;;;;;;;5072607;28;20372;-78
2021/12/06 09:19:51;;;;;;;16.55;10.52;;;;;;;;;;5070781;28;20457;-78
2021/12/06 09:22:18;;;;;;;15.75;9.57;;;;;;;;;;5071702;28;20085;-77
2021/12/06 09:24:44;;;;;;;14.98;9.90;;;;;;;;;;5071714;28;20077;-78
2021/12/06 09:27:11;;;;;;;16.83;10.73;;;;;;;;;;5071088;28;20426;-78
2021/12/06 09:29:37;;;;;;;20.27;10.77;;;;;;;;;;5072498;28;20036;-79
2021/12/06 09:32:08;;;;;;;16.90;9.60;;;;;;;;;;5091593;28;20371;-78
2021/12/06 09:34:37;;;;;;;16.23;9.70;;;;;;;;;;5090798;28;20470;-78
2021/12/06 09:37:03;;;;;;;17.48;10.30;;;;;;;;;;5090345;28;20046;-78
2021/12/06 09:39:31;;;;;;;18.15;10.25;;;;;;;;;;5088558;28;20039;-79
2021/12/06 09:41:57;;;;;;;17.83;9.77;;;;;;;;;;5071130;28;20028;-78
2021/12/06 09:44:23;;;;;;;15.52;9.90;;;;;;;;;;5071306;28;20418;-77
2021/12/06 09:46:50;;;;;;;16.38;10.45;;;;;;;;;;5069759;28;20266;-77
2021/12/06 09:49:17;;;;;;;17.60;9.82;;;;;;;;;;5071066;28;20032;-77
2021/12/06 09:51:51;;;;;;;14.02;8.70;;;;;;;;;;5090166;28;20085;-78
2021/12/06 09:54:17;;;;;;;17.45;10.57;;;;;;;;;;5089398;28;20032;-78
2021/12/06 09:56:43;;;;;;;16.75;10.55;;;;;;;;;;5090739;28;20074;-79
2021/12/06 09:59:11;;;;;;;16.88;8.85;;;;;;;;;;5087318;28;20131;-78
2021/12/06 10:01:40;;;;;;;15.95;9.82;;;;;;;;;;5072111;28;20033;-78
2021/12/06 10:04:09;;;;;;;17.05;10.77;;;;;;;;;;5070792;28;20020;-78
2021/12/06 10:06:35;;;;;;;18.65;10.80;;;;;;;;;;5069308;28;20021;-79
2021/12/06 10:09:03;;;;;;;20.10;11.02;;;;;;;;;;5069478;28;20478;-77
2021/12/06 10:11:30;;;;;;;15.82;10.27;;;;;;;;;;5086265;28;20394;-77
2021/12/06 10:13:57;;;;;;;17.58;9.25;;;;;;;;;;5082628;28;20481;-78
2021/12/06 10:16:24;;;;;;;15.07;9.57;;;;;;;;;;5069088;28;20039;-78
2021/12/06 10:18:51;;;;;;;16.73;9.38;;;;;;;;;;5078522;28;20035;-78
2021/12/06 10:21:17;;;;;;;17.33;9.38;;;;;;;;;;5090725;28;20034;-78
2021/12/06 10:23:43;;;;;;;16.88;9.07;;;;;;;;;;5090634;28;20017;-77
2021/12/06 10:26:12;;;;;;;17.92;9.88;;;;;;;;;;5090562;28;20638;-78
2021/12/06 10:28:40;;;;;;;14.65;8.88;;;;;;;;;;5079453;28;20017;-80
2021/12/06 10:31:07;;;;;;;16.40;9.57;;;;;;;;;;5092988;28;20016;-79
2021/12/06 10:33:35;;;;;;;15.50;9.35;;;;;;;;;;5090624;28;20024;-78
2021/12/06 10:36:13;;;;;;;17.73;8.88;;;;;;;;;;5089581;28;20024;-79
2021/12/06 10:38:42;;;;;;;18.65;10.02;;;;;;;;;;5070537;28;20028;-78
2021/12/06 10:41:09;;;;;;;15.63;9.20;;;;;;;;;;5069412;28;20470;-77
2021/12/06 10:43:36;;;;;;;18.85;9.80;;;;;;;;;;5070524;28;20031;-77
2021/12/06 10:46:03;;;;;;;16.88;10.13;;;;;;;;;;5070756;28;20012;-78
2021/12/06 10:48:37;;;;;;;16.15;10.05;;;;;;;;;;5091497;28;20176;-78
2021/12/06 10:51:05;;;;;;;18.08;10.45;;;;;;;;;;5092715;28;20338;-78
2021/12/06 10:53:42;;;;;;;18.02;9.80;;;;;;;;;;5094040;28;20049;-78
2021/12/06 10:56:18;;;;;;;15.43;9.52;;;;;;;;;;5094178;28;20016;-78
2021/12/06 10:58:45;;;;;;;14.90;9.18;;;;;;;;;;5083528;28;20044;-77
2021/12/06 11:01:16;;;;;;;16.63;9.32;;;;;;;;;;5093813;28;20020;-77
2021/12/06 11:03:47;;;;;;;17.70;9.77;;;;;;;;;;5092469;28;20028;-78
2021/12/06 11:06:18;;;;;;;16.90;9.98;;;;;;;;;;5079840;28;20482;-79
2021/12/06 11:08:44;;;;;;;18.33;10.40;;;;;;;;;;5072079;28;20025;-78
2021/12/06 11:11:19;;;;;;;18.52;10.32;;;;;;;;;;5073466;28;20050;-78
2021/12/06 11:13:48;;;;;;;16.05;10.20;;;;;;;;;;5084120;28;20058;-79
2021/12/06 11:16:17;;;;;;;16.77;9.85;;;;;;;;;;5079935;28;20020;-79
2021/12/06 11:18:51;;;;;;;15.20;10.18;;;;;;;;;;5073178;28;20432;-78
2021/12/06 11:21:23;;;;;;;18.10;9.20;;;;;;;;;;5073219;28;20024;-78
2021/12/06 11:24:04;;;;;;;17.17;10.00;;;;;;;;;;5073177;28;20393;-78
2021/12/06 11:26:31;;;;;;;16.42;9.80;;;;;;;;;;5073473;28;20501;-79
2021/12/06 11:29:04;;;;;;;19.08;10.02;;;;;;;;;;5088591;28;20028;-79
2021/12/06 11:31:31;;;;;;;15.93;9.85;;;;;;;;;;5093223;28;20413;-78
2021/12/06 11:33:58;;;;;;;16.15;9.77;;;;;;;;;;5092015;28;20024;-77
2021/12/06 11:36:25;;;;;;;18.45;10.38;;;;;;;;;;5078566;28;20043;-78
2021/12/06 11:38:57;;;;;;;19.35;9.38;;;;;;;;;;5072141;28;20334;-79
2021/12/06 11:41:23;;;;;;;16.73;9.68;;;;;;;;;;5072585;28;20052;-78
2021/12/06 11:43:49;;;;;;;19.75;11.02;;;;;;;;;;5075199;28;20117;-78
2021/12/06 11:46:31;;;;;;;18.63;11.00;;;;;;;;;;5072959;28;20111;-78
2021/12/06 11:48:57;;;;;;;21.13;10.77;;;;;;;;;;5072559;28;20047;-78
2021/12/06 11:51:24;;;;;;;15.13;10.40;;;;;;;;;;5079245;28;20024;-78
2021/12/06 11:53:52;;;;;;;17.98;10.70;;;;;;;;;;5093150;28;20081;-77
2021/12/06 11:56:21;;;;;;;18.92;10.75;;;;;;;;;;5077942;28;20047;-78
2021/12/06 11:58:48;;;;;;;18.73;10.82;;;;;;;;;;5086336;28;20040;-78
2021/12/06 12:01:16;;;;;;;16.83;9.82;;;;;;;;;;5092624;28;20027;-78
2021/12/06 12:03:44;;;;;;;18.55;10.70;;;;;;;;;;5092358;28;20031;-79
2021/12/06 12:06:24;;;;;;;16.60;10.02;;;;;;;;;;5079956;28;20028;-78
2021/12/06 12:09:01;;;;;;;19.27;10.80;;;;;;;;;;5070947;28;20058;-77
2021/12/06 12:11:27;;;;;;;16.38;10.27;;;;;;;;;;5072587;28;20020;-79
2021/12/06 12:13:56;;;;;;;18.52;10.38;;;;;;;;;;5072733;28;20029;-79
2021/12/06 12:16:22;;;;;;;17.17;10.55;;;;;;;;;;5084599;28;20028;-79
2021/12/06 12:18:48;;;;;;;19.40;10.15;;;;;;;;;;5092758;28;20035;-78
2021/12/06 12:21:15;;;;;;;18.05;10.35;;;;;;;;;;5092525;28;20023;-77
2021/12/06 12:23:42;;;;;;;20.70;10.73;;;;;;;;;;5092569;28;20068;-78
2021/12/06 12:26:13;;;;;;;18.30;9.77;;;;;;;;;;5081155;28;20405;-77
2021/12/06 12:29:00;;;;;;;17.70;10.30;;;;;;;;;;5071766;28;20496;-76
2021/12/06 12:31:28;;;;;;;14.55;8.70;;;;;;;;;;5072135;28;20406;-77
2021/12/06 12:33:57;;;;;;;18.15;9.27;;;;;;;;;;5071954;28;20016;-76
2021/12/06 12:36:24;;;;;;;15.77;7.97;;;;;;;;;;5082907;28;20020;-77
2021/12/06 12:38:54;;;;;;;14.88;8.55;;;;;;;;;;5091935;28;20034;-75
2021/12/06 12:41:22;;;;;;;15.85;8.95;;;;;;;;;;5091533;28;20508;-77
2021/12/06 12:43:50;;;;;;;17.67;9.38;;;;;;;;;;5071950;28;20025;-77
2021/12/06 12:46:16;;;;;;;13.90;8.75;;;;;;;;;;5089586;28;20035;-77
2021/12/06 12:48:54;;;;;;;15.65;9.30;;;;;;;;;;5090784;28;20012;-78
2021/12/06 12:51:22;;;;;;;13.68;8.57;;;;;;;;;;5092439;28;20059;-77
2021/12/06 12:54:07;;;;;;;15.82;8.93;;;;;;;;;;5090331;28;20060;-78
2021/12/06 12:56:41;;;;;;;13.30;7.68;;;;;;;;;;5076861;28;20387;-78
2021/12/06 12:59:36;;;;;;;14.93;8.95;;;;;;;;;;5071283;28;20708;-78
2021/12/06 13:02:21;;;;;;;16.80;9.13;;;;;;;;;;5070289;28;20431;-78
2021/12/06 13:05:00;;;;;;;18.95;9.55;;;;;;;;;;5070036;28;20465;-76
2021/12/06 13:07:27;;;;;;;16.35;9.73;;;;;;;;;;5084671;28;20036;-78
2021/12/06 13:09:54;;;;;;;14.50;8.55;;;;;;;;;;5070206;28;20050;-76
2021/12/06 13:12:20;;;;;;;16.10;9.07;;;;;;;;;;5071017;28;20056;-77
2021/12/06 13:14:50;;;;;;;12.35;7.85;;;;;;;;;;5071433;28;20028;-77
2021/12/06 13:17:29;;;;;;;15.55;8.48;;;;;;;;;;5070889;28;20029;-77
2021/12/06 13:20:10;;;;;;;15.48;8.75;;;;;;;;;;5077042;28;20021;-77
2021/12/06 13:22:46;;;;;;;13.35;8.18;;;;;;;;;;5082001;28;20035;-76
2021/12/06 13:25:13;;;;;;;12.50;7.53;;;;;;;;;;5093537;28;20046;-76
2021/12/06 13:27:40;;;;;;;12.40;7.78;;;;;;;;;;5076952;28;20021;-77
2021/12/06 13:30:23;;;;;;;14.77;8.75;;;;;;;;;;5077513;28;20025;-77
2021/12/06 13:32:49;;;;;;;;;;;;;;;;;;5074306;28;20025;-78
2021/12/06 13:35:28;;;;;;;15.02;7.72;;;;;;;;;;5081238;28;20289;-77
2021/12/06 13:38:13;;;;;;;14.45;9.23;;;;;;;;;;5089791;28;20035;-78
2021/12/06 13:40:44;;;;;;;15.18;8.88;;;;;;;;;;5090082;28;20032;-76
2021/12/06 13:43:13;;;;;;;14.77;8.70;;;;;;;;;;5091249;28;20072;-77
2021/12/06 13:45:41;;;;;;;15.73;8.50;;;;;;;;;;5078501;28;20027;-78
2021/12/06 13:48:12;;;;;;;16.30;8.63;;;;;;;;;;5073659;28;20029;-77
2021/12/06 13:50:38;;;;;;;15.60;8.48;;;;;;;;;;5069111;28;20027;-79
2021/12/06 13:53:04;;;;;;;17.35;8.80;;;;;;;;;;5070778;28;20021;-77
2021/12/06 13:55:37;;;;;;;17.35;8.88;;;;;;;;;;5083441;28;20111;-76
2021/12/06 13:58:07;;;;;;;14.65;9.60;;;;;;;;;;5088227;28;20028;-76
2021/12/06 14:00:42;;;;;;;14.93;9.00;;;;;;;;;;5094776;28;20085;-77
2021/12/06 14:03:12;;;;;;;14.55;9.90;;;;;;;;;;5085911;28;20123;-78
2021/12/06 14:05:40;;;;;;;16.90;11.68;;;;;;;;;;5090821;28;20024;-78
2021/12/06 14:08:06;;;;;;;22.88;14.93;;;;;;;;;;5074808;28;20025;-77
2021/12/06 14:10:36;;;;;;;26.10;16.58;;;;;;;;;;5080236;28;20024;-77
2021/12/06 14:13:07;;;;;;;21.23;13.57;;;;;;;;;;5089677;28;20031;-77
2021/12/06 14:18:14;;;;;;;14.98;8.77;;;;;;;;;;5075534;28;20103;-77
2021/12/06 14:20:45;;;;;;;14.15;8.35;;;;;;;;;;5076152;28;20028;-77
2021/12/06 14:23:12;;;;;;;16.58;9.73;;;;;;;;;;5074686;28;20107;-76
2021/12/06 14:25:48;;;;;;;15.35;9.00;;;;;;;;;;5083999;28;20043;-78
2021/12/06 14:28:14;;;;;;;14.55;8.75;;;;;;;;;;5089694;28;20062;-78
2021/12/06 14:30:41;;;;;;;16.25;9.18;;;;;;;;;;5076123;28;20048;-78
2021/12/06 14:33:07;;;;;;;17.17;8.85;;;;;;;;;;5091892;28;20453;-78
2021/12/06 14:35:34;;;;;;;15.50;9.18;;;;;;;;;;5087033;28;20020;-79
2021/12/06 14:38:00;;;;;;;15.35;9.20;;;;;;;;;;5086432;28;20101;-78
2021/12/06 14:40:26;;;;;;;14.15;8.52;;;;;;;;;;5087056;28;20028;-79
2021/12/06 14:42:53;;;;;;;13.73;8.18;;;;;;;;;;5075856;28;20062;-78
2021/12/06 14:45:20;;;;;;;16.08;8.57;;;;;;;;;;5083937;28;20032;-79
2021/12/06 14:47:54;;;;;;;15.70;8.90;;;;;;;;;;5080720;28;20055;-79
2021/12/06 14:50:34;;;;;;;18.90;9.10;;;;;;;;;;5079015;28;20074;-78